createdAt,value
2023-05-22T00:01:46.857Z,63.60
2023-05-22T00:04:21.258Z,63.80
2023-05-22T00:06:49.548Z,63.90
2023-05-22T00:09:16.866Z,63.80
2023-05-22T00:11:44.372Z,64.00
2023-05-22T00:14:13.774Z,64.00
2023-05-22T00:16:42.021Z,64.30
2023-05-22T00:19:13.416Z,64.20
2023-05-22T00:21:40.968Z,64.20
2023-05-22T00:24:08.646Z,64.20
2023-05-22T00:26:36.278Z,64.30
2023-05-22T00:29:05.989Z,64.70
2023-05-22T00:31:33.475Z,65.00
2023-05-22T00:34:00.872Z,65.00
2023-05-22T00:36:28.969Z,65.00
2023-05-22T00:38:56.291Z,64.90
2023-05-22T00:41:24.020Z,64.80
2023-05-22T00:43:51.514Z,65.00
2023-05-22T00:46:22.948Z,65.00
2023-05-22T00:48:52.585Z,65.00
2023-05-22T00:51:24.909Z,65.00
2023-05-22T00:53:54.118Z,65.80
2023-05-22T00:56:22.175Z,65.20
2023-05-22T00:58:49.857Z,65.50
2023-05-22T01:01:17.984Z,65.60
2023-05-22T01:03:47.061Z,65.60
2023-05-22T01:06:18.107Z,65.50
2023-05-22T01:08:45.569Z,65.50
2023-05-22T01:11:48.795Z,65.50
2023-05-22T01:14:40.659Z,65.60
2023-05-22T01:17:38.682Z,65.60
2023-05-22T01:20:31.758Z,65.50
2023-05-22T01:23:25.281Z,65.50
2023-05-22T01:26:35.673Z,65.50
2023-05-22T01:29:43.961Z,65.70
2023-05-22T01:32:19.162Z,65.70
2023-05-22T01:34:53.536Z,65.80
2023-05-22T01:37:22.710Z,66.00
2023-05-22T01:39:52.474Z,66.10
2023-05-22T01:42:20.092Z,66.30
2023-05-22T01:44:49.327Z,65.70
2023-05-22T01:47:18.189Z,65.20
2023-05-22T01:49:47.436Z,64.40
2023-05-22T01:52:40.243Z,64.20
2023-05-22T01:55:20.394Z,63.80
2023-05-22T01:58:28.145Z,63.50
2023-05-22T02:01:01.608Z,63.30
2023-05-22T02:03:33.770Z,63.00
2023-05-22T02:06:08.010Z,63.00
2023-05-22T02:08:41.351Z,62.90
2023-05-22T02:11:12.788Z,62.70
2023-05-22T02:13:40.697Z,62.80
2023-05-22T02:16:08.739Z,62.70
2023-05-22T02:18:36.037Z,62.80
2023-05-22T02:21:03.844Z,62.70
2023-05-22T02:23:31.276Z,62.90
2023-05-22T02:25:58.534Z,62.90
2023-05-22T02:28:26.130Z,62.90
2023-05-22T02:30:53.676Z,63.10
2023-05-22T02:33:21.556Z,63.00
2023-05-22T02:35:48.879Z,63.20
2023-05-22T02:38:16.232Z,63.30
2023-05-22T02:40:43.473Z,63.50
2023-05-22T02:43:10.710Z,63.50
2023-05-22T02:45:38.012Z,63.50
2023-05-22T02:48:06.022Z,63.60
2023-05-22T02:50:33.339Z,63.80
2023-05-22T02:53:00.811Z,63.80
2023-05-22T02:55:28.099Z,63.80
2023-05-22T02:57:55.468Z,63.80
2023-05-22T03:00:23.092Z,63.80
2023-05-22T03:02:50.699Z,63.90
2023-05-22T03:05:18.451Z,64.00
2023-05-22T03:07:48.325Z,63.90
2023-05-22T03:10:17.577Z,64.00
2023-05-22T03:12:44.887Z,64.00
2023-05-22T03:15:12.348Z,63.80
2023-05-22T03:17:39.745Z,63.60
2023-05-22T03:20:08.900Z,63.50
2023-05-22T03:22:36.315Z,63.40
2023-05-22T03:25:06.313Z,63.40
2023-05-22T03:27:33.632Z,63.20
2023-05-22T03:30:01.348Z,63.00
2023-05-22T03:32:28.868Z,63.10
2023-05-22T03:34:56.301Z,62.90
2023-05-22T03:37:23.557Z,62.80
2023-05-22T03:39:50.803Z,62.50
2023-05-22T03:42:18.155Z,62.50
2023-05-22T03:44:45.576Z,62.40
2023-05-22T03:47:12.977Z,62.00
2023-05-22T03:49:40.459Z,61.80
2023-05-22T03:52:11.046Z,61.80
2023-05-22T03:54:38.311Z,61.90
2023-05-22T03:57:06.138Z,61.40
2023-05-22T03:59:33.562Z,61.60
2023-05-22T04:02:01.433Z,61.30
2023-05-22T04:04:29.266Z,61.10
2023-05-22T04:06:58.270Z,60.90
2023-05-22T04:09:32.453Z,60.60
2023-05-22T04:12:00.051Z,60.10
2023-05-22T04:14:27.893Z,60.10
2023-05-22T04:16:55.376Z,60.00
2023-05-22T04:19:22.943Z,59.80
2023-05-22T04:21:50.355Z,59.80
2023-05-22T04:24:18.361Z,59.80
2023-05-22T04:26:45.801Z,59.60
2023-05-22T04:29:14.665Z,59.40
2023-05-22T04:31:45.126Z,59.30
2023-05-22T04:34:14.737Z,59.30
2023-05-22T04:36:44.103Z,59.20
2023-05-22T04:39:11.587Z,59.00
2023-05-22T04:41:39.214Z,58.90
2023-05-22T04:44:07.481Z,58.80
2023-05-22T04:46:36.089Z,58.70
2023-05-22T04:49:03.581Z,58.70
2023-05-22T04:51:33.059Z,58.50
2023-05-22T04:54:00.469Z,58.50
2023-05-22T04:56:36.448Z,58.40
2023-05-22T04:59:08.491Z,58.10
2023-05-22T05:01:39.240Z,57.80
2023-05-22T05:04:06.799Z,57.10
2023-05-22T05:06:35.948Z,56.90
2023-05-22T05:09:04.606Z,56.70
2023-05-22T05:11:37.906Z,56.60
2023-05-22T05:14:05.342Z,56.50
2023-05-22T05:16:38.556Z,56.20
2023-05-22T05:19:07.192Z,56.10
2023-05-22T05:21:34.906Z,55.60
2023-05-22T05:24:06.121Z,55.70
2023-05-22T05:26:42.445Z,55.50
2023-05-22T05:29:12.862Z,55.00
2023-05-22T05:31:40.217Z,54.90
2023-05-22T05:34:07.950Z,54.80
2023-05-22T05:36:35.685Z,54.50
2023-05-22T05:39:03.077Z,54.20
2023-05-22T05:41:33.879Z,53.10
2023-05-22T05:44:01.501Z,52.70
2023-05-22T05:46:29.246Z,52.50
2023-05-22T05:48:58.902Z,52.20
2023-05-22T05:51:26.570Z,52.10
2023-05-22T05:53:53.957Z,52.00
2023-05-22T05:56:22.721Z,52.00
2023-05-22T05:58:49.950Z,51.70
2023-05-22T06:01:18.458Z,51.80
2023-05-22T06:03:46.098Z,51.40
2023-05-22T06:06:14.206Z,51.60
2023-05-22T06:08:42.403Z,50.90
2023-05-22T06:11:16.983Z,50.90
2023-05-22T06:13:44.427Z,50.90
2023-05-22T06:16:12.357Z,51.00
2023-05-22T06:18:43.068Z,50.60
2023-05-22T06:21:10.593Z,50.50
2023-05-22T06:23:40.303Z,50.30
2023-05-22T06:26:08.070Z,50.30
2023-05-22T06:29:00.037Z,50.10
2023-05-22T06:31:38.172Z,49.80
2023-05-22T06:34:11.765Z,49.80
2023-05-22T06:36:46.338Z,49.80
2023-05-22T06:39:13.767Z,49.40
2023-05-22T06:41:41.169Z,49.80
2023-05-22T06:44:08.510Z,49.90
2023-05-22T06:46:36.027Z,49.50
2023-05-22T06:49:03.532Z,49.30
2023-05-22T06:51:31.902Z,49.10
2023-05-22T06:54:00.155Z,49.10
2023-05-22T06:56:27.541Z,49.20
2023-05-22T06:58:54.960Z,49.10
2023-05-22T07:01:23.410Z,49.20
2023-05-22T07:03:50.793Z,49.20
2023-05-22T07:06:18.508Z,48.50
2023-05-22T07:08:45.851Z,48.60
2023-05-22T07:11:13.186Z,48.90
2023-05-22T07:13:40.557Z,49.20
2023-05-22T07:16:08.271Z,48.50
2023-05-22T07:18:35.811Z,48.30
2023-05-22T07:21:03.160Z,48.30
2023-05-22T07:23:30.481Z,47.90
2023-05-22T07:26:00.948Z,48.10
2023-05-22T07:28:28.278Z,47.80
2023-05-22T07:30:56.674Z,47.60
2023-05-22T07:33:25.741Z,47.30
2023-05-22T07:35:57.261Z,47.60
2023-05-22T07:38:24.590Z,47.50
2023-05-22T07:40:58.024Z,47.70
2023-05-22T07:43:39.277Z,47.70
2023-05-22T07:46:06.756Z,47.10
2023-05-22T07:48:37.110Z,46.70
2023-05-22T07:51:04.649Z,47.30
2023-05-22T07:53:31.950Z,47.70
2023-05-22T07:55:59.388Z,47.40
2023-05-22T07:58:29.748Z,47.60
2023-05-22T08:00:57.476Z,47.70
2023-05-22T08:03:28.578Z,47.30
2023-05-22T08:05:56.072Z,47.10
2023-05-22T08:08:25.792Z,47.20
2023-05-22T08:13:30.854Z,47.20
2023-05-22T08:16:00.700Z,47.00
2023-05-22T08:18:29.920Z,47.10
2023-05-22T08:20:57.855Z,47.00
2023-05-22T08:23:25.333Z,47.50
2023-05-22T08:25:53.114Z,47.30
2023-05-22T08:28:20.475Z,47.30
2023-05-22T08:30:47.984Z,47.10
2023-05-22T08:33:15.447Z,46.80
2023-05-22T08:35:42.713Z,47.40
2023-05-22T08:38:10.608Z,47.50
2023-05-22T08:40:44.613Z,47.00
2023-05-22T08:43:15.584Z,46.70
2023-05-22T08:45:44.329Z,45.70
2023-05-22T08:48:18.585Z,45.70
2023-05-22T08:50:50.324Z,45.70
2023-05-22T08:53:19.056Z,46.90
2023-05-22T08:55:46.390Z,45.80
2023-05-22T08:58:14.647Z,46.30
2023-05-22T09:00:49.228Z,45.90
2023-05-22T09:03:16.791Z,45.30
2023-05-22T09:05:45.563Z,45.90
2023-05-22T09:08:20.543Z,46.40
2023-05-22T09:10:48.757Z,46.00
2023-05-22T09:13:39.383Z,46.40
2023-05-22T09:16:12.503Z,46.20
2023-05-22T09:18:42.593Z,46.50
2023-05-22T09:21:28.894Z,46.50
2023-05-22T09:24:11.979Z,46.70
2023-05-22T09:26:40.018Z,46.70
2023-05-22T09:29:08.226Z,47.00
2023-05-22T09:31:45.229Z,46.50
2023-05-22T09:34:15.984Z,46.30
2023-05-22T09:36:48.334Z,46.40
2023-05-22T09:39:15.751Z,46.80
2023-05-22T09:41:45.031Z,46.30
2023-05-22T09:44:16.586Z,45.90
2023-05-22T09:46:48.151Z,46.20
2023-05-22T09:49:19.102Z,45.90
2023-05-22T09:51:51.606Z,46.10
2023-05-22T09:54:21.793Z,45.90
2023-05-22T09:56:51.198Z,45.90
2023-05-22T09:59:27.646Z,45.80
2023-05-22T10:01:55.281Z,46.10
2023-05-22T10:04:23.983Z,46.20
2023-05-22T10:06:54.305Z,45.60
2023-05-22T10:09:32.747Z,46.00
2023-05-22T10:12:07.266Z,45.90
2023-05-22T10:14:38.657Z,45.40
2023-05-22T10:17:07.110Z,44.80
2023-05-22T10:19:39.725Z,45.10
2023-05-22T10:22:10.531Z,45.30
2023-05-22T10:24:39.697Z,45.40
2023-05-22T10:27:07.103Z,45.70
2023-05-22T10:29:53.298Z,45.60
2023-05-22T10:32:48.067Z,45.30
2023-05-22T10:35:57.326Z,45.70
2023-05-22T10:38:58.660Z,45.80
2023-05-22T10:41:35.823Z,46.30
2023-05-22T10:44:03.843Z,45.90
2023-05-22T10:46:36.555Z,46.00
2023-05-22T10:49:04.168Z,45.80
2023-05-22T10:51:34.422Z,45.70
2023-05-22T10:54:05.846Z,45.20
2023-05-22T10:56:38.265Z,45.90
2023-05-22T10:59:10.245Z,45.90
2023-05-22T11:01:43.303Z,46.20
2023-05-22T11:04:12.280Z,45.90
2023-05-22T11:07:03.425Z,45.40
2023-05-22T11:09:33.912Z,45.40
2023-05-22T11:12:27.154Z,45.60
2023-05-22T11:15:00.245Z,45.80
2023-05-22T11:17:40.036Z,46.00
2023-05-22T11:20:18.679Z,46.10
2023-05-22T11:23:05.363Z,46.00
2023-05-22T11:25:38.605Z,46.20
2023-05-22T11:28:12.613Z,46.60
2023-05-22T11:30:42.010Z,46.10
2023-05-22T11:33:12.946Z,46.00
2023-05-22T11:35:41.356Z,45.40
2023-05-22T11:38:09.916Z,44.80
2023-05-22T11:40:39.339Z,44.20
2023-05-22T11:43:07.355Z,45.00
2023-05-22T11:45:39.995Z,45.00
2023-05-22T11:48:09.281Z,44.50
2023-05-22T11:50:42.152Z,44.40
2023-05-22T11:53:11.065Z,43.80
2023-05-22T11:55:38.491Z,43.80
2023-05-22T11:58:05.873Z,44.00
2023-05-22T12:00:33.520Z,44.00
2023-05-22T12:03:01.074Z,43.60
2023-05-22T12:05:28.476Z,43.70
2023-05-22T12:07:56.137Z,43.60
2023-05-22T12:10:27.747Z,42.90
2023-05-22T12:12:55.272Z,42.70
2023-05-22T12:15:24.403Z,42.90
2023-05-22T12:18:01.155Z,42.20
2023-05-22T12:20:31.723Z,42.20
2023-05-22T12:22:59.814Z,42.70
2023-05-22T12:25:37.370Z,42.40
2023-05-22T12:28:07.528Z,42.40
2023-05-22T12:30:43.960Z,42.60
2023-05-22T12:33:15.408Z,41.50
2023-05-22T12:35:44.217Z,40.60
2023-05-22T12:38:11.925Z,41.60
2023-05-22T12:40:39.465Z,41.80
2023-05-22T12:43:09.984Z,41.30
2023-05-22T12:45:37.269Z,41.10
2023-05-22T12:48:04.809Z,42.50
2023-05-22T12:50:32.429Z,42.10
2023-05-22T12:53:01.442Z,41.40
2023-05-22T12:55:31.574Z,41.60
2023-05-22T12:58:01.894Z,40.70
2023-05-22T13:00:29.164Z,40.00
2023-05-22T13:02:57.076Z,41.00
2023-05-22T13:05:24.611Z,40.80
2023-05-22T13:07:57.152Z,40.90
2023-05-22T13:10:24.497Z,39.80
2023-05-22T13:12:54.744Z,40.30
2023-05-22T13:15:29.434Z,40.50
2023-05-22T13:17:59.646Z,40.30
2023-05-22T13:20:29.650Z,39.90
2023-05-22T13:22:57.070Z,39.70
2023-05-22T13:25:24.558Z,39.70
2023-05-22T13:27:52.105Z,39.50
2023-05-22T13:30:20.182Z,38.80
2023-05-22T13:32:47.639Z,38.60
2023-05-22T13:35:15.117Z,39.20
2023-05-22T13:37:42.463Z,39.00
2023-05-22T13:40:10.677Z,38.80
2023-05-22T13:42:38.763Z,38.40
2023-05-22T13:45:07.014Z,38.20
2023-05-22T13:47:34.893Z,38.50
2023-05-22T13:50:02.267Z,38.30
2023-05-22T13:52:31.046Z,37.60
2023-05-22T13:54:58.940Z,37.90
2023-05-22T13:57:27.488Z,38.80
2023-05-22T13:59:54.787Z,38.70
2023-05-22T14:02:22.309Z,38.80
2023-05-22T14:04:52.028Z,38.90
2023-05-22T14:07:19.502Z,39.20
2023-05-22T14:09:46.984Z,39.20
2023-05-22T14:12:14.359Z,38.90
2023-05-22T14:14:41.720Z,39.40
2023-05-22T14:17:09.661Z,39.70
2023-05-22T14:19:39.673Z,39.50
2023-05-22T14:22:07.427Z,40.10
2023-05-22T14:24:34.735Z,39.60
2023-05-22T14:27:02.080Z,39.70
2023-05-22T14:29:31.452Z,40.30
2023-05-22T14:32:05.688Z,40.20
2023-05-22T14:34:33.215Z,39.60
2023-05-22T14:37:00.707Z,39.70
2023-05-22T14:39:28.089Z,39.90
2023-05-22T14:41:56.577Z,40.40
2023-05-22T14:44:23.707Z,40.80
2023-05-22T14:46:51.407Z,40.80
2023-05-22T14:49:18.781Z,40.70
2023-05-22T14:51:48.167Z,41.00
2023-05-22T14:54:19.039Z,41.10
2023-05-22T14:56:46.704Z,41.10
2023-05-22T14:59:14.374Z,41.30
2023-05-22T15:01:41.749Z,41.40
2023-05-22T15:04:09.171Z,41.30
2023-05-22T15:06:36.537Z,41.20
2023-05-22T15:09:03.891Z,41.30
2023-05-22T15:11:31.122Z,41.00
2023-05-22T15:13:58.305Z,41.40
2023-05-22T15:16:28.646Z,43.80
2023-05-22T15:18:56.085Z,43.00
2023-05-22T15:21:23.830Z,43.50
2023-05-22T15:23:59.856Z,43.80
2023-05-22T15:26:27.339Z,43.80
2023-05-22T15:29:12.263Z,43.60
2023-05-22T15:31:39.684Z,43.80
2023-05-22T15:34:06.884Z,43.10
2023-05-22T15:36:36.770Z,42.40
2023-05-22T15:39:04.109Z,41.70
2023-05-22T15:41:31.276Z,41.40
2023-05-22T15:43:58.428Z,41.00
2023-05-22T15:46:25.628Z,41.20
2023-05-22T15:48:52.807Z,41.80
2023-05-22T15:51:20.030Z,42.40
2023-05-22T15:53:47.258Z,43.00
2023-05-22T15:56:14.603Z,42.70
2023-05-22T15:58:41.746Z,42.50
2023-05-22T16:01:09.109Z,42.30
2023-05-22T16:03:36.454Z,42.10
2023-05-22T16:06:04.000Z,41.70
2023-05-22T16:08:31.175Z,41.30
2023-05-22T16:11:00.869Z,41.00
2023-05-22T16:13:28.402Z,40.60
2023-05-22T16:15:55.915Z,40.50
2023-05-22T16:18:24.220Z,40.40
2023-05-22T16:20:51.520Z,40.00
2023-05-22T16:23:19.875Z,39.40
2023-05-22T16:25:47.970Z,39.20
2023-05-22T16:28:17.223Z,39.30
2023-05-22T16:30:47.695Z,39.80
2023-05-22T16:33:15.004Z,40.50
2023-05-22T16:35:50.424Z,41.30
2023-05-22T16:38:17.707Z,42.50
2023-05-22T16:40:44.935Z,43.90
2023-05-22T16:43:14.340Z,44.00
2023-05-22T16:45:46.723Z,44.70
2023-05-22T16:48:14.247Z,45.30
2023-05-22T16:50:42.518Z,45.60
2023-05-22T16:53:17.465Z,46.30
2023-05-22T16:55:44.762Z,46.80
2023-05-22T16:58:12.867Z,46.60
2023-05-22T17:00:40.514Z,47.20
2023-05-22T17:03:12.167Z,47.40
2023-05-22T17:05:40.221Z,47.70
2023-05-22T17:08:09.163Z,48.10
2023-05-22T17:10:36.444Z,48.00
2023-05-22T17:13:03.785Z,48.90
2023-05-22T17:15:32.212Z,48.70
2023-05-22T17:17:59.599Z,48.60
2023-05-22T17:20:26.783Z,48.60
2023-05-22T17:22:53.941Z,49.20
2023-05-22T17:25:21.534Z,49.60
2023-05-22T17:27:49.002Z,50.10
2023-05-22T17:30:19.508Z,50.40
2023-05-22T17:32:46.874Z,50.50
2023-05-22T17:35:13.996Z,50.60
2023-05-22T17:37:41.712Z,50.70
2023-05-22T17:40:10.052Z,50.90
2023-05-22T17:42:37.173Z,50.80
2023-05-22T17:45:04.803Z,51.40
2023-05-22T17:47:31.976Z,51.60
2023-05-22T17:49:59.258Z,51.80
2023-05-22T17:52:27.577Z,51.90
2023-05-22T17:54:58.720Z,52.20
2023-05-22T17:57:26.320Z,52.10
2023-05-22T17:59:53.592Z,52.40
2023-05-22T18:02:23.907Z,52.50
2023-05-22T18:04:53.994Z,52.50
2023-05-22T18:07:26.174Z,52.50
2023-05-22T18:09:54.447Z,53.40
2023-05-22T18:12:31.244Z,52.90
2023-05-22T18:15:10.905Z,53.00
2023-05-22T18:17:45.204Z,53.10
2023-05-22T18:20:25.453Z,53.40
2023-05-22T18:22:52.995Z,53.40
2023-05-22T18:25:23.015Z,53.90
2023-05-22T18:27:58.517Z,53.50
2023-05-22T18:30:51.403Z,53.30
2023-05-22T18:33:24.809Z,54.20
2023-05-22T18:35:52.336Z,53.70
2023-05-22T18:38:22.442Z,53.70
2023-05-22T18:40:49.725Z,54.00
2023-05-22T18:43:24.963Z,54.10
2023-05-22T18:45:58.149Z,55.40
2023-05-22T18:48:29.993Z,54.50
2023-05-22T18:50:57.930Z,55.20
2023-05-22T18:53:26.107Z,54.90
2023-05-22T18:55:54.213Z,55.40
2023-05-22T18:58:24.297Z,54.40
2023-05-22T19:00:54.283Z,54.90
2023-05-22T19:03:21.826Z,56.20
2023-05-22T19:05:49.115Z,55.30
2023-05-22T19:08:16.304Z,55.40
2023-05-22T19:10:55.166Z,55.40
2023-05-22T19:13:26.768Z,55.70
2023-05-22T19:15:54.090Z,55.50
2023-05-22T19:18:24.673Z,55.80
2023-05-22T19:20:51.961Z,55.70
2023-05-22T19:23:19.230Z,55.90
2023-05-22T19:25:46.760Z,56.20
2023-05-22T19:28:13.907Z,56.40
2023-05-22T19:30:41.678Z,56.40
2023-05-22T19:33:11.774Z,56.40
2023-05-22T19:35:39.037Z,56.40
2023-05-22T19:38:08.888Z,56.80
2023-05-22T19:40:36.401Z,57.00
2023-05-22T19:43:03.732Z,56.80
2023-05-22T19:45:30.967Z,56.70
2023-05-22T19:47:58.245Z,56.80
2023-05-22T19:50:25.896Z,57.80
2023-05-22T19:52:53.246Z,59.30
2023-05-22T19:55:21.951Z,60.10
2023-05-22T19:57:52.142Z,61.00
2023-05-22T20:00:21.132Z,61.50
2023-05-22T20:02:48.878Z,62.00
2023-05-22T20:05:16.397Z,62.30
2023-05-22T20:07:43.685Z,62.50
2023-05-22T20:10:11.934Z,62.90
2023-05-22T20:12:39.554Z,63.20
2023-05-22T20:15:07.573Z,63.40
2023-05-22T20:17:41.907Z,63.60
2023-05-22T20:20:09.977Z,63.90
2023-05-22T20:22:37.301Z,64.10
2023-05-22T20:25:06.371Z,64.40
2023-05-22T20:27:33.820Z,64.60
2023-05-22T20:30:01.197Z,64.80
2023-05-22T20:32:30.737Z,65.00
2023-05-22T20:34:58.207Z,65.20
2023-05-22T20:37:26.540Z,66.80
2023-05-22T20:39:54.453Z,66.00
2023-05-22T20:42:22.489Z,66.00
2023-05-22T20:44:49.762Z,66.10
2023-05-22T20:47:17.000Z,66.30
2023-05-22T20:49:44.381Z,66.50
2023-05-22T20:52:13.413Z,66.80
2023-05-22T20:54:41.798Z,67.20
2023-05-22T20:57:09.064Z,67.50
2023-05-22T20:59:37.767Z,67.80
2023-05-22T21:02:05.538Z,68.10
2023-05-22T21:04:33.276Z,68.40
2023-05-22T21:07:00.692Z,68.70
2023-05-22T21:09:28.142Z,68.80
2023-05-22T21:11:55.681Z,69.10
2023-05-22T21:14:23.003Z,69.30
2023-05-22T21:16:50.402Z,69.50
2023-05-22T21:19:17.846Z,69.80
2023-05-22T21:21:45.233Z,70.10
2023-05-22T21:24:12.685Z,70.30
2023-05-22T21:26:40.956Z,70.60
2023-05-22T21:29:08.369Z,70.60
2023-05-22T21:31:36.584Z,70.90
2023-05-22T21:34:03.975Z,71.10
2023-05-22T21:36:31.941Z,71.20
2023-05-22T21:39:00.496Z,71.50
2023-05-22T21:41:28.005Z,71.50
2023-05-22T21:43:57.047Z,71.80
2023-05-22T21:46:24.828Z,71.90
2023-05-22T21:48:53.675Z,72.10
2023-05-22T21:51:21.119Z,72.20
2023-05-22T21:53:48.504Z,72.20
2023-05-22T21:56:15.876Z,72.20
2023-05-22T21:58:45.458Z,72.50
2023-05-22T22:01:12.803Z,72.80
2023-05-22T22:03:40.255Z,72.90
2023-05-22T22:06:08.104Z,72.90
2023-05-22T22:08:35.571Z,72.90
2023-05-22T22:11:02.859Z,73.00
2023-05-22T22:13:30.152Z,73.30
2023-05-22T22:15:57.890Z,73.40
2023-05-22T22:18:26.072Z,73.50
2023-05-22T22:20:54.168Z,73.80
2023-05-22T22:23:22.106Z,73.80
2023-05-22T22:25:49.813Z,74.00
2023-05-22T22:28:17.199Z,74.10
2023-05-22T22:30:47.944Z,74.20
2023-05-22T22:33:15.368Z,74.30
2023-05-22T22:35:43.152Z,74.20
2023-05-22T22:38:10.571Z,74.30
2023-05-22T22:40:39.632Z,74.40
2023-05-22T22:43:07.055Z,74.60
2023-05-22T22:45:34.401Z,74.80
2023-05-22T22:48:02.036Z,75.00
2023-05-22T22:50:29.802Z,75.70
2023-05-22T22:52:57.150Z,75.20
2023-05-22T22:55:24.606Z,75.30
2023-05-22T22:57:52.087Z,75.50
2023-05-22T23:00:20.275Z,75.50
2023-05-22T23:02:47.643Z,75.50
2023-05-22T23:05:16.845Z,75.50
2023-05-22T23:07:46.584Z,75.20
2023-05-22T23:10:15.152Z,75.20
2023-05-22T23:12:43.163Z,75.20
2023-05-22T23:15:14.211Z,75.00
2023-05-22T23:17:42.374Z,74.90
2023-05-22T23:20:10.863Z,74.80
2023-05-22T23:22:38.071Z,74.70
2023-05-22T23:25:05.987Z,74.70
2023-05-22T23:27:33.274Z,74.70
2023-05-22T23:30:00.646Z,74.70
2023-05-22T23:32:28.619Z,74.80
2023-05-22T23:34:56.609Z,74.60
2023-05-22T23:37:23.986Z,75.10
2023-05-22T23:39:51.301Z,74.30
2023-05-22T23:42:19.207Z,74.30
2023-05-22T23:44:47.804Z,74.40
2023-05-22T23:47:16.853Z,74.40
2023-05-22T23:49:45.833Z,74.50
2023-05-22T23:52:13.647Z,74.60
2023-05-22T23:54:40.985Z,74.70
2023-05-22T23:57:08.366Z,74.70
2023-05-22T23:59:35.693Z,74.70
